Decoded Metar for EPPO (POZNAN in POLAND) (IATA:POZ) | Meteo·Mobile Aviation Weather
aviador You're here:

EPPO Decoded Metar

POZNAN in POLAND
Report Time2018-09-18 14:00:00
UTC Time2018-09-18 14:20:47
Flight Rules vfr VFR
Wind200° at 08 kt
W.Decomp.*RWY 28: 0.8 kt HW 8 kt LCW
W.Rank200° ranks 17
Current wind is above 200° avg. (5.5)
Visibility9999 m
Phenomena:N/A
Clouds:N/A
Expected CloudBase > 7,200 ft AGL from Temp-Dew spread
CeilingNone
Temp28°C (ISA +14)
Dew Point10°C (32% RH)
Heat Index27.2°C
AAT25.1°C
QNH1016 hPa
Density Alt1,932 ft
Elevation302 ft
Report Wrong Elevation
Raw Report
EPPO 181400Z 20008KT 160V230 CAVOK 28/10 Q1016=

Extra information for EPPO:More info

Metar Taf Metar & Taf Last 4 Metars F.Rules Stats Wind Profile Meteogram Temp Stats Airport Information Weather charts Add Link Nearby VenuesMetar ALERT Operation Metar Decoded Social comments